Glenville, WV

4:30 PM EST on December 28, 2014 (GMT -0500)
Brooklyn Point | Change Station
CLOSE
Current Station
Personal Weather Station
Location: Glenville, WV
Elevation: 732 ft
Nearby Weather Stations

Elev 732 ft 38.94 °N, 80.84 °W | Updated 2 seconds ago

Rain
Rain
43.9 °F
Feels Like 44 °F
N
1.7
Wind Variable Wind from WNW

Today
High -- | Low -- °F
--% Chance of Precip.
Yesterday
High -- | Low -- °F
Precip. -- in
7:41 AM 5:08 PM
First Quarter, 51% visible
Pressure 30.05 in
Visibility 8.0 miles
Clouds Overcast 900 ft
Windchill 44 °F
Dew Point 42 °F
Humidity 94%
Rainfall 0.12 in
Snow Depth Not available.
UV 0 out of 12
Pollen .10 out of 12
Air Quality Not available.
Flu Activity Not available.
METAR KW22 282115Z AUTO 29006KT 8SM -RA OVC009 04/04 A3005 RMK AO2

More Conditions Fewer Conditions

Pressure 30.05 in
Visibility 8.0 miles
Clouds Overcast 900 ft
Windchill 44 °F
Dew Point 42 °F
Humidity 94%
Rainfall 0.12 in
Snow Depth Not available.
UV 0 out of 12
Pollen .10 out of 12
Air Quality Not available.
Flu Activity Not available.
METAR KW22 282115Z AUTO 29006KT 8SM -RA OVC009 04/04 A3005 RMK AO2

More Conditions Fewer Conditions

10-Day Weather Forecast

Almanac

Astronomy

Dec. 28, 2014 Rise Set
Actual Time
Civil Twilight
Nautical Twilight
Astronomical Twilight
Moon
Length of Visible Light
Length of Day
Tomorrow will be .
, % of the Moon is Illuminated

Today's Extremes

State Highs State Lows

Community

WunderPhotos

Upload Photos

1,781,433 photos uploaded!

WunderBlogs® & News

Nearby

Air Quality

  Air Quality AQ Index Pollutant
Not available.

Snow Depth

Station Depth Elevation

Earthquake Activity

City Distance Mag. Time & Date
Minimum magnitude displayed is 2.5.

Coastal Water Temperatures

Place Temperature

Nearby Weather Stations